Time;durP1;ratioP1;P1;durP2;ratioP2;P2;SDS_P1;SDS_P2;PMS_P1;PMS_P2;Temp;Humidity;BMP_temperature;BMP_pressure;BME280_temperature;BME280_humidity;BME280_pressure;Samples;Min_cycle;Max_cycle;Signal;HPM_P1;HPM_P2
2023/04/14 00:02:21;;;;;;;10.23;10.03;;;20.70;49.90;;;;;;5095737;28;20527;-53
2023/04/14 00:04:51;;;;;;;10.27;10.07;;;20.70;49.90;;;;;;5115401;28;20477;-54
2023/04/14 00:07:20;;;;;;;10.10;9.80;;;20.70;49.90;;;;;;5115109;28;20457;-54
2023/04/14 00:09:47;;;;;;;10.50;10.20;;;20.70;50.00;;;;;;5115190;28;20441;-54
2023/04/14 00:12:14;;;;;;;10.60;10.30;;;20.70;50.00;;;;;;5115272;28;20498;-54
2023/04/14 00:14:41;;;;;;;10.37;10.13;;;20.70;50.00;;;;;;5095092;28;20482;-56
2023/04/14 00:17:08;;;;;;;10.33;10.13;;;20.60;49.90;;;;;;5094559;28;20553;-54
2023/04/14 00:19:35;;;;;;;10.17;9.97;;;20.60;50.00;;;;;;5094750;28;20993;-56
2023/04/14 00:22:02;;;;;;;10.10;9.80;;;20.60;50.00;;;;;;5094640;28;20541;-57
2023/04/14 00:24:30;;;;;;;10.40;10.20;;;20.60;50.00;;;;;;5099029;28;20474;-55
2023/04/14 00:26:57;;;;;;;10.07;9.80;;;20.60;50.00;;;;;;5094348;28;20492;-53
2023/04/14 00:29:24;;;;;;;10.77;10.47;;;20.50;50.00;;;;;;5094543;28;20949;-54
2023/04/14 00:31:51;;;;;;;10.80;10.50;;;20.60;50.10;;;;;;5094552;28;20451;-54
2023/04/14 00:34:18;;;;;;;10.67;10.40;;;20.50;50.00;;;;;;5112839;28;20448;-54
2023/04/14 00:36:45;;;;;;;10.40;10.10;;;20.50;50.10;;;;;;5114384;28;20577;-54
2023/04/14 00:39:12;;;;;;;10.20;10.00;;;20.50;50.10;;;;;;5114741;28;20477;-55
2023/04/14 00:41:42;;;;;;;10.53;10.23;;;20.50;50.10;;;;;;5114669;28;20493;-56
2023/04/14 00:44:09;;;;;;;10.60;10.40;;;20.50;50.10;;;;;;5097509;28;20442;-54
2023/04/14 00:46:36;;;;;;;10.27;9.97;;;20.50;50.10;;;;;;5094084;28;20488;-56
2023/04/14 00:49:04;;;;;;;10.80;10.50;;;20.40;50.10;;;;;;5093989;28;20533;-58
2023/04/14 00:51:32;;;;;;;10.50;10.20;;;20.40;50.10;;;;;;5102490;28;20449;-58
2023/04/14 00:54:00;;;;;;;10.70;10.50;;;20.40;50.10;;;;;;5114381;28;20498;-55
2023/04/14 00:56:28;;;;;;;10.33;10.13;;;20.40;50.10;;;;;;5114214;28;20485;-54
2023/04/14 00:58:56;;;;;;;10.93;10.43;;;20.40;50.10;;;;;;5113200;28;20449;-56
2023/04/14 01:01:24;;;;;;;10.60;10.30;;;20.40;50.10;;;;;;5093756;28;20478;-55
2023/04/14 01:03:51;;;;;;;10.07;9.80;;;20.40;50.10;;;;;;5093753;28;20478;-54
2023/04/14 01:06:18;;;;;;;10.13;9.93;;;20.40;50.10;;;;;;5093820;28;20470;-57
2023/04/14 01:08:45;;;;;;;10.97;10.67;;;20.40;50.10;;;;;;5093615;28;20465;-57
2023/04/14 01:11:19;;;;;;;10.33;10.03;;;20.40;50.10;;;;;;5113241;28;20975;-57
2023/04/14 01:13:53;;;;;;;10.80;10.50;;;20.40;50.10;;;;;;5114038;28;20476;-54
2023/04/14 01:16:27;;;;;;;10.73;10.23;;;20.40;50.10;;;;;;5113967;28;20568;-57
2023/04/14 01:19:03;;;;;;;10.80;10.40;;;20.40;50.10;;;;;;5113635;28;20852;-55
2023/04/14 01:21:34;;;;;;;10.60;10.30;;;20.40;50.10;;;;;;5073289;28;20478;-55
2023/04/14 01:24:26;;;;;;;10.77;10.47;;;20.30;50.00;;;;;;5073336;28;20841;-55
2023/04/14 01:27:02;;;;;;;10.20;10.00;;;20.30;50.00;;;;;;5073045;28;21030;-55
2023/04/14 01:29:50;;;;;;;10.10;9.90;;;20.30;50.10;;;;;;5082968;28;20524;-57
2023/04/14 01:32:22;;;;;;;10.40;10.10;;;20.30;50.10;;;;;;5113745;28;20442;-58
2023/04/14 01:34:53;;;;;;;10.40;10.20;;;20.30;50.10;;;;;;5113769;28;20488;-57
2023/04/14 01:37:30;;;;;;;10.43;10.13;;;20.20;50.00;;;;;;5113184;28;20576;-53
2023/04/14 01:40:00;;;;;;;10.07;9.87;;;20.20;50.10;;;;;;5111910;28;20445;-53
2023/04/14 01:42:35;;;;;;;10.67;10.37;;;20.30;50.20;;;;;;5113229;28;20446;-54
2023/04/14 01:45:08;;;;;;;10.03;9.83;;;20.20;50.10;;;;;;5113523;28;20477;-53
2023/04/14 01:47:37;;;;;;;10.33;10.03;;;20.20;50.10;;;;;;5113227;28;20522;-56
2023/04/14 01:50:06;;;;;;;10.40;10.20;;;20.20;50.10;;;;;;5102214;28;20878;-55
2023/04/14 01:52:35;;;;;;;10.30;10.00;;;20.20;50.10;;;;;;5093012;28;20541;-57
2023/04/14 01:55:05;;;;;;;10.30;10.07;;;20.20;50.20;;;;;;5092896;28;20473;-53
2023/04/14 01:57:35;;;;;;;10.40;10.20;;;20.20;50.20;;;;;;5092718;28;20875;-55
2023/04/14 02:00:04;;;;;;;10.30;10.10;;;20.10;50.10;;;;;;5102962;28;20446;-54
2023/04/14 02:02:32;;;;;;;10.10;9.90;;;20.20;50.20;;;;;;5113173;28;20444;-57
2023/04/14 02:05:03;;;;;;;10.20;10.00;;;20.10;50.10;;;;;;5113067;28;20536;-58
2023/04/14 02:07:31;;;;;;;10.10;9.90;;;20.10;50.10;;;;;;5111126;28;20473;-56
2023/04/14 02:10:00;;;;;;;10.40;10.00;;;20.10;50.10;;;;;;5112969;28;20480;-57
2023/04/14 02:12:29;;;;;;;9.70;9.50;;;20.10;50.20;;;;;;5093505;28;20477;-55
2023/04/14 02:14:59;;;;;;;10.07;9.77;;;20.10;50.20;;;;;;5091889;28;20941;-56
2023/04/14 02:17:27;;;;;;;9.80;9.60;;;20.10;50.10;;;;;;5094325;28;20567;-54
2023/04/14 02:19:55;;;;;;;10.00;9.80;;;20.10;50.20;;;;;;5112826;28;20484;-53
2023/04/14 02:22:24;;;;;;;10.00;9.80;;;20.00;50.10;;;;;;5112766;28;20879;-57
2023/04/14 02:24:53;;;;;;;10.43;10.13;;;20.10;50.20;;;;;;5112711;28;20480;-57
2023/04/14 02:27:29;;;;;;;10.67;10.37;;;20.00;50.20;;;;;;5112180;28;20469;-56
2023/04/14 02:29:58;;;;;;;10.93;10.50;;;20.00;50.20;;;;;;5112831;28;20476;-58
2023/04/14 02:32:29;;;;;;;10.47;10.13;;;20.00;50.30;;;;;;5112657;28;20445;-58
2023/04/14 02:35:03;;;;;;;10.10;9.90;;;20.00;50.30;;;;;;5112663;28;20441;-54
2023/04/14 02:37:36;;;;;;;9.90;9.70;;;20.00;50.30;;;;;;5109551;28;20567;-56
2023/04/14 02:40:11;;;;;;;10.47;10.17;;;19.90;50.30;;;;;;5111209;28;20481;-55
2023/04/14 02:42:40;;;;;;;10.27;10.07;;;19.90;50.30;;;;;;5112454;28;20532;-57
2023/04/14 02:45:13;;;;;;;10.83;10.53;;;19.90;50.30;;;;;;5112473;28;20488;-58
2023/04/14 02:47:44;;;;;;;10.17;9.90;;;19.90;50.30;;;;;;5108406;28;20497;-56
2023/04/14 02:50:14;;;;;;;10.17;9.90;;;19.90;50.40;;;;;;5091972;28;20474;-58
2023/04/14 02:52:46;;;;;;;10.27;9.97;;;19.90;50.40;;;;;;5091864;28;20492;-57
2023/04/14 02:55:13;;;;;;;10.23;10.03;;;19.80;50.30;;;;;;5092020;28;20926;-55
2023/04/14 02:57:41;;;;;;;9.40;9.20;;;19.80;50.30;;;;;;5108573;28;20577;-57
2023/04/14 03:00:09;;;;;;;9.70;9.50;;;19.80;50.30;;;;;;5112172;28;20473;-53
2023/04/14 03:02:38;;;;;;;9.10;8.90;;;19.80;50.30;;;;;;5112143;28;20506;-56
2023/04/14 03:05:06;;;;;;;9.43;9.23;;;19.80;50.40;;;;;;5112179;28;20873;-57
2023/04/14 03:07:34;;;;;;;10.33;10.03;;;19.70;50.30;;;;;;5095768;28;20458;-55
2023/04/14 03:10:03;;;;;;;9.30;9.10;;;19.80;50.40;;;;;;5091578;28;20453;-56
2023/04/14 03:12:31;;;;;;;10.10;9.80;;;19.70;50.90;;;;;;5091659;28;20442;-54
2023/04/14 03:14:59;;;;;;;9.83;9.63;;;19.70;50.40;;;;;;5099482;28;20485;-56
2023/04/14 03:17:27;;;;;;;10.43;10.17;;;19.70;50.40;;;;;;5111645;28;20481;-55
2023/04/14 03:19:54;;;;;;;10.70;10.40;;;19.70;50.40;;;;;;5111949;28;20485;-57
2023/04/14 03:22:23;;;;;;;10.73;10.40;;;19.70;50.40;;;;;;5111930;28;20927;-56
2023/04/14 03:24:50;;;;;;;10.27;9.97;;;19.70;50.40;;;;;;5105486;28;20481;-54
2023/04/14 03:27:21;;;;;;;10.87;10.50;;;19.70;50.50;;;;;;5095533;28;20473;-55
2023/04/14 03:29:52;;;;;;;10.73;10.43;;;19.70;50.50;;;;;;5095755;28;20529;-52
2023/04/14 03:32:22;;;;;;;11.07;10.77;;;19.70;50.50;;;;;;5095660;28;20450;-56
2023/04/14 03:34:53;;;;;;;11.70;11.30;;;19.70;50.50;;;;;;5101767;28;20888;-53
2023/04/14 03:37:24;;;;;;;10.50;10.20;;;19.60;50.40;;;;;;5115460;28;20534;-55
2023/04/14 03:39:52;;;;;;;10.90;10.60;;;19.60;50.40;;;;;;5114245;28;20469;-54
2023/04/14 03:42:23;;;;;;;10.20;10.00;;;19.60;50.40;;;;;;5115840;28;20859;-55
2023/04/14 03:44:53;;;;;;;10.67;10.37;;;19.60;50.50;;;;;;5115906;28;20478;-53
2023/04/14 03:47:22;;;;;;;10.60;10.30;;;19.60;50.50;;;;;;5115534;28;20522;-55
2023/04/14 03:49:50;;;;;;;10.60;10.40;;;19.60;50.50;;;;;;5114827;28;20819;-57
2023/04/14 03:52:19;;;;;;;11.27;10.77;;;19.60;50.50;;;;;;5095272;28;20488;-57
2023/04/14 03:54:47;;;;;;;10.80;10.47;;;19.60;50.50;;;;;;5095212;28;20976;-54
2023/04/14 03:57:17;;;;;;;10.90;10.60;;;19.60;50.60;;;;;;5094882;28;20566;-57
2023/04/14 03:59:49;;;;;;;10.77;10.47;;;19.60;50.60;;;;;;5095087;28;20446;-58
2023/04/14 04:02:18;;;;;;;10.33;10.13;;;19.60;50.60;;;;;;5074753;28;20443;-56
2023/04/14 04:04:45;;;;;;;10.73;10.43;;;19.50;50.50;;;;;;5074814;28;20538;-54
2023/04/14 04:07:13;;;;;;;10.63;10.40;;;19.60;50.50;;;;;;5074387;28;20818;-56
2023/04/14 04:09:41;;;;;;;11.27;10.87;;;19.50;50.50;;;;;;5074586;28;20481;-57
2023/04/14 04:12:10;;;;;;;11.20;10.90;;;19.50;50.50;;;;;;5114202;28;20453;-58
2023/04/14 04:14:39;;;;;;;10.53;10.33;;;19.50;50.50;;;;;;5115248;28;20477;-56
2023/04/14 04:17:08;;;;;;;10.90;10.60;;;19.50;50.50;;;;;;5114971;28;20507;-55
2023/04/14 04:19:37;;;;;;;11.57;11.27;;;19.50;50.60;;;;;;5113358;28;20932;-57
2023/04/14 04:22:04;;;;;;;12.00;11.60;;;19.50;50.60;;;;;;5114939;28;20480;-54
2023/04/14 04:24:36;;;;;;;10.93;10.73;;;19.50;50.60;;;;;;5115034;28;20502;-52
2023/04/14 04:27:04;;;;;;;11.43;11.13;;;19.50;50.60;;;;;;5114731;28;20485;-55
2023/04/14 04:29:31;;;;;;;10.87;10.50;;;19.50;50.60;;;;;;5103275;28;20451;-55
2023/04/14 04:31:59;;;;;;;11.20;10.90;;;19.50;50.60;;;;;;5094501;28;20553;-52
2023/04/14 04:34:30;;;;;;;11.10;10.80;;;19.40;50.60;;;;;;5094376;28;20537;-56
2023/04/14 04:36:59;;;;;;;11.50;11.20;;;19.50;50.70;;;;;;5093261;28;20517;-54
2023/04/14 04:39:26;;;;;;;11.03;10.73;;;19.40;50.60;;;;;;5104236;28;20532;-52
2023/04/14 04:42:02;;;;;;;11.50;11.20;;;19.50;50.70;;;;;;5114728;28;20482;-56
2023/04/14 04:44:29;;;;;;;12.77;12.37;;;19.40;50.70;;;;;;5114792;28;20951;-55
2023/04/14 04:46:56;;;;;;;12.40;11.90;;;19.40;50.90;;;;;;5114472;28;20493;-54
2023/04/14 04:49:23;;;;;;;12.50;11.83;;;19.40;51.00;;;;;;5104878;28;20536;-56
2023/04/14 04:51:52;;;;;;;12.30;11.80;;;19.50;51.70;;;;;;5094234;28;20465;-56
2023/04/14 04:54:19;;;;;;;13.03;12.33;;;19.50;52.50;;;;;;5094087;28;20877;-58
2023/04/14 04:56:46;;;;;;;13.90;12.90;;;19.50;53.60;;;;;;5094687;28;20973;-57
2023/04/14 04:59:12;;;;;;;14.60;13.80;;;19.50;54.70;;;;;;5114405;28;20529;-55
2023/04/14 05:01:40;;;;;;;15.70;14.70;;;19.50;55.80;;;;;;5114405;28;20476;-57
2023/04/14 05:04:07;;;;;;;15.47;13.97;;;19.50;57.10;;;;;;5114362;28;20480;-55
2023/04/14 05:06:35;;;;;;;13.57;12.48;;;19.50;58.20;;;;;;5102312;28;20495;-56
2023/04/14 05:09:04;;;;;;;14.87;13.60;;;19.50;58.90;;;;;;5103964;28;20208;-53
2023/04/14 05:11:32;;;;;;;13.63;12.80;;;19.50;59.10;;;;;;5102504;28;20475;-57
2023/04/14 05:13:58;;;;;;;13.90;12.90;;;19.60;59.40;;;;;;5113712;28;20477;-57
2023/04/14 05:16:27;;;;;;;14.83;13.30;;;19.50;59.40;;;;;;5114075;28;20469;-56
2023/04/14 05:18:54;;;;;;;13.97;13.17;;;19.50;59.20;;;;;;5113817;28;20441;-54
2023/04/14 05:21:21;;;;;;;15.77;14.50;;;19.50;58.80;;;;;;5113892;28;20460;-54
2023/04/14 05:23:51;;;;;;;14.97;13.50;;;19.50;58.40;;;;;;5113943;28;20446;-56
2023/04/14 05:26:19;;;;;;;14.60;13.20;;;19.50;58.30;;;;;;5113863;28;20454;-56
2023/04/14 05:28:46;;;;;;;14.47;13.67;;;19.40;57.90;;;;;;5113641;28;20528;-57
2023/04/14 05:31:13;;;;;;;15.60;14.20;;;19.40;57.60;;;;;;5113739;28;20880;-58
2023/04/14 05:33:40;;;;;;;14.33;13.40;;;19.40;57.40;;;;;;5113689;28;20504;-54
2023/04/14 05:36:07;;;;;;;15.00;14.00;;;19.50;57.20;;;;;;5113566;28;20437;-55
2023/04/14 05:38:37;;;;;;;13.67;12.97;;;19.40;57.00;;;;;;5113703;28;20572;-55
2023/04/14 05:41:04;;;;;;;14.77;13.97;;;19.40;56.80;;;;;;5113765;28;20886;-53
2023/04/14 05:43:32;;;;;;;14.40;13.40;;;19.40;56.60;;;;;;5113457;28;20434;-56
2023/04/14 05:46:00;;;;;;;14.27;13.40;;;19.40;56.90;;;;;;5113610;28;20536;-53
2023/04/14 05:48:29;;;;;;;14.47;13.57;;;19.40;56.20;;;;;;5111981;28;20493;-53
2023/04/14 05:50:56;;;;;;;14.20;13.40;;;19.40;56.10;;;;;;5113374;28;20933;-52
2023/04/14 05:53:23;;;;;;;15.77;14.67;;;19.40;55.90;;;;;;5113247;28;20514;-55
2023/04/14 05:55:52;;;;;;;14.03;13.30;;;19.40;55.80;;;;;;5113270;28;20448;-54
2023/04/14 05:58:19;;;;;;;16.20;14.80;;;19.30;55.50;;;;;;5112935;28;20489;-54
2023/04/14 06:00:47;;;;;;;14.93;14.10;;;19.30;55.30;;;;;;5113159;28;20448;-52
2023/04/14 06:03:15;;;;;;;14.60;13.70;;;19.30;55.20;;;;;;5113088;28;20476;-52
2023/04/14 06:05:42;;;;;;;13.80;13.20;;;19.30;55.00;;;;;;5112982;28;20453;-53
2023/04/14 06:08:08;;;;;;;14.50;13.70;;;19.30;54.90;;;;;;5112759;28;20485;-53
2023/04/14 06:10:35;;;;;;;14.33;13.53;;;19.30;54.80;;;;;;5112922;28;20485;-57
2023/04/14 06:13:02;;;;;;;13.90;12.90;;;19.30;54.70;;;;;;5112941;28;20441;-53
2023/04/14 06:15:29;;;;;;;13.50;13.03;;;19.30;54.60;;;;;;5112952;28;20484;-55
2023/04/14 06:17:58;;;;;;;14.30;13.60;;;19.30;54.50;;;;;;5112467;28;20492;-53
2023/04/14 06:20:25;;;;;;;14.37;13.50;;;19.30;54.40;;;;;;5112690;28;20484;-56
2023/04/14 06:22:52;;;;;;;14.40;13.50;;;19.30;54.30;;;;;;5112758;28;20469;-54
2023/04/14 06:25:18;;;;;;;13.80;13.20;;;19.30;54.20;;;;;;5112804;28;20478;-53
2023/04/14 06:27:45;;;;;;;14.83;13.60;;;19.30;54.10;;;;;;5112308;28;20489;-56
2023/04/14 06:30:14;;;;;;;13.40;12.80;;;19.30;54.10;;;;;;5112684;28;20537;-54
2023/04/14 06:32:41;;;;;;;13.80;12.80;;;19.30;54.00;;;;;;5112536;28;20449;-56
2023/04/14 06:35:09;;;;;;;12.90;12.23;;;19.20;53.80;;;;;;5112494;28;20480;-57
2023/04/14 06:37:36;;;;;;;13.63;13.03;;;19.20;53.80;;;;;;5112003;28;20984;-54
2023/04/14 06:40:05;;;;;;;13.63;13.00;;;19.20;53.70;;;;;;5112431;28;20495;-57
2023/04/14 06:42:32;;;;;;;13.70;13.20;;;19.20;53.60;;;;;;5112420;28;20473;-56
2023/04/14 06:44:59;;;;;;;13.30;12.80;;;19.20;53.50;;;;;;5112490;28;20574;-55
2023/04/14 06:47:26;;;;;;;13.23;12.70;;;19.20;53.50;;;;;;5112205;28;20493;-55
2023/04/14 06:49:52;;;;;;;13.67;12.97;;;19.20;53.40;;;;;;5112265;28;20480;-56
2023/04/14 06:52:21;;;;;;;13.13;12.50;;;19.20;53.40;;;;;;5112247;28;20534;-54
2023/04/14 06:54:48;;;;;;;14.03;13.50;;;19.20;53.20;;;;;;5112365;28;20867;-55
2023/04/14 06:57:15;;;;;;;13.33;12.93;;;19.20;53.20;;;;;;5111925;28;20489;-56
2023/04/14 06:59:41;;;;;;;13.30;12.70;;;19.20;53.20;;;;;;5111954;28;20469;-53
2023/04/14 07:02:08;;;;;;;12.80;12.10;;;19.20;53.10;;;;;;5112130;28;20481;-56
2023/04/14 07:04:36;;;;;;;13.17;12.57;;;19.20;53.00;;;;;;5112221;28;20477;-54
2023/04/14 07:07:03;;;;;;;13.07;12.67;;;19.20;52.90;;;;;;5111843;28;20992;-56
2023/04/14 07:09:31;;;;;;;13.10;12.60;;;19.20;52.90;;;;;;5112058;28;20472;-56
2023/04/14 07:11:58;;;;;;;12.60;12.20;;;19.20;52.80;;;;;;5112061;28;20879;-53
2023/04/14 07:14:25;;;;;;;12.70;12.30;;;19.10;52.70;;;;;;5112041;28;20528;-53
2023/04/14 07:16:52;;;;;;;12.50;12.20;;;19.20;52.70;;;;;;5111676;28;20492;-53
2023/04/14 07:19:19;;;;;;;12.83;12.43;;;19.20;52.70;;;;;;5111964;28;20452;-54
2023/04/14 07:21:46;;;;;;;13.07;12.57;;;19.20;52.60;;;;;;5111937;28;20473;-52
2023/04/14 07:24:14;;;;;;;12.77;12.27;;;19.10;52.50;;;;;;5111982;28;20812;-53
2023/04/14 07:26:43;;;;;;;13.10;12.60;;;19.10;52.50;;;;;;5111590;28;20834;-53
2023/04/14 07:29:10;;;;;;;12.40;12.00;;;19.10;52.40;;;;;;5111820;28;20486;-57
2023/04/14 07:31:38;;;;;;;12.77;12.23;;;19.10;52.50;;;;;;5111792;28;20980;-52
2023/04/14 07:34:05;;;;;;;13.23;12.70;;;19.10;52.40;;;;;;5111862;28;21037;-53
2023/04/14 07:36:32;;;;;;;12.83;12.40;;;19.10;52.30;;;;;;5111562;28;20472;-59
2023/04/14 07:38:59;;;;;;;12.97;12.57;;;19.10;52.30;;;;;;5111688;28;20567;-57
2023/04/14 07:41:27;;;;;;;13.50;12.60;;;19.10;52.20;;;;;;5111733;28;20479;-53
2023/04/14 07:43:57;;;;;;;12.60;12.20;;;19.10;52.20;;;;;;5111697;28;20496;-56
2023/04/14 07:46:25;;;;;;;12.80;12.40;;;19.10;52.20;;;;;;5111565;28;20940;-56
2023/04/14 07:48:51;;;;;;;12.87;12.37;;;19.10;52.20;;;;;;5111339;28;20532;-54
2023/04/14 07:51:18;;;;;;;13.43;12.83;;;19.10;52.10;;;;;;5111705;28;20860;-55
2023/04/14 07:53:45;;;;;;;13.40;12.80;;;19.10;52.10;;;;;;5111616;28;20480;-53
2023/04/14 07:56:13;;;;;;;13.40;12.70;;;19.10;52.00;;;;;;5111536;28;20474;-53
2023/04/14 07:58:40;;;;;;;12.70;12.20;;;19.10;52.00;;;;;;5111408;28;20671;-56
2023/04/14 08:01:08;;;;;;;12.60;12.30;;;19.10;52.00;;;;;;5111587;28;20444;-53
2023/04/14 08:03:36;;;;;;;12.63;12.27;;;19.10;51.90;;;;;;5111443;28;20473;-52
2023/04/14 08:06:04;;;;;;;13.57;12.77;;;19.10;51.90;;;;;;5111474;28;20928;-53
2023/04/14 08:08:31;;;;;;;12.37;12.03;;;19.10;51.90;;;;;;5111318;28;20894;-52
2023/04/14 08:10:58;;;;;;;13.30;12.70;;;19.10;51.90;;;;;;5111545;28;20437;-56
2023/04/14 08:13:25;;;;;;;13.00;12.60;;;19.00;51.80;;;;;;5114622;28;20524;-54
2023/04/14 08:15:52;;;;;;;12.97;12.50;;;19.00;51.70;;;;;;5115006;28;20480;-54
2023/04/14 08:18:20;;;;;;;12.33;11.83;;;19.00;51.70;;;;;;5114830;28;20567;-54
2023/04/14 08:20:48;;;;;;;12.80;12.33;;;19.00;51.70;;;;;;5115143;28;20479;-52
2023/04/14 08:23:15;;;;;;;12.90;12.50;;;19.00;51.60;;;;;;5115121;28;20441;-55
2023/04/14 08:25:42;;;;;;;12.97;12.57;;;19.00;51.60;;;;;;5114928;28;20496;-54
2023/04/14 08:28:09;;;;;;;13.30;12.80;;;19.00;51.60;;;;;;5114747;28;20500;-56
2023/04/14 08:30:36;;;;;;;12.70;12.30;;;19.00;51.60;;;;;;5114906;28;20469;-54
2023/04/14 08:33:02;;;;;;;12.83;12.43;;;19.00;51.60;;;;;;5114854;28;20801;-56
2023/04/14 08:35:31;;;;;;;12.37;11.97;;;19.00;51.50;;;;;;5114902;28;20480;-55
2023/04/14 08:37:59;;;;;;;12.60;12.20;;;19.00;51.40;;;;;;5114294;28;20569;-53
2023/04/14 08:40:35;;;;;;;13.23;12.80;;;19.00;51.40;;;;;;5114853;28;20452;-54
2023/04/14 08:43:02;;;;;;;12.80;12.40;;;19.00;51.40;;;;;;5114741;28;20840;-53
2023/04/14 08:45:31;;;;;;;12.90;12.50;;;19.00;51.40;;;;;;5114522;28;20449;-52
2023/04/14 08:47:59;;;;;;;12.53;12.13;;;19.00;51.40;;;;;;5114271;28;21026;-54
2023/04/14 08:50:30;;;;;;;12.80;12.50;;;19.00;51.40;;;;;;5114509;28;20492;-53
2023/04/14 08:53:02;;;;;;;12.80;12.50;;;19.00;51.30;;;;;;5114663;28;20438;-55
2023/04/14 08:55:30;;;;;;;12.90;12.50;;;19.00;51.30;;;;;;5114520;28;20442;-54
2023/04/14 08:57:58;;;;;;;12.60;12.20;;;19.00;51.30;;;;;;5114070;28;20484;-52
2023/04/14 09:00:25;;;;;;;12.70;12.30;;;19.00;51.30;;;;;;5114185;28;20457;-55
2023/04/14 09:02:53;;;;;;;12.43;12.13;;;19.00;51.20;;;;;;5114207;28;20955;-52
2023/04/14 09:05:21;;;;;;;12.73;12.30;;;19.00;51.20;;;;;;5114351;28;20480;-53
2023/04/14 09:07:49;;;;;;;11.83;11.53;;;19.00;51.20;;;;;;5113943;28;20624;-52
2023/04/14 09:10:17;;;;;;;12.20;11.90;;;19.00;51.20;;;;;;5113999;28;20471;-58
2023/04/14 09:12:45;;;;;;;12.67;12.37;;;19.00;51.20;;;;;;5114278;28;20473;-52
2023/04/14 09:15:13;;;;;;;12.27;11.97;;;19.00;51.20;;;;;;5114027;28;20569;-53
2023/04/14 09:17:40;;;;;;;12.20;11.90;;;19.00;51.20;;;;;;5113607;28;20466;-54
2023/04/14 09:20:08;;;;;;;12.30;11.97;;;19.00;51.20;;;;;;5114084;28;20867;-55
2023/04/14 09:22:35;;;;;;;11.97;11.60;;;19.00;51.10;;;;;;5110962;28;20479;-60
2023/04/14 09:25:03;;;;;;;10.60;10.20;;;19.00;51.40;;;;;;5110084;28;20488;-55
2023/04/14 09:27:32;;;;;;;10.23;9.93;;;19.10;51.90;;;;;;5112198;28;20492;-56
2023/04/14 09:30:00;;;;;;;11.83;11.53;;;19.20;51.90;;;;;;5113346;28;20480;-55
2023/04/14 09:32:27;;;;;;;11.57;11.07;;;19.30;52.00;;;;;;5107289;28;20439;-53
2023/04/14 09:34:54;;;;;;;11.60;11.20;;;19.40;52.10;;;;;;5093018;28;20848;-56
2023/04/14 09:37:21;;;;;;;11.30;11.00;;;19.50;52.00;;;;;;5093784;28;20553;-53
2023/04/14 09:39:49;;;;;;;10.80;10.50;;;19.60;52.20;;;;;;5072919;28;20545;-51
2023/04/14 09:42:17;;;;;;;11.37;11.07;;;19.60;52.10;;;;;;5072819;28;20481;-57
2023/04/14 09:44:56;;;;;;;11.10;10.80;;;19.50;52.60;;;;;;5072775;28;20535;-52
2023/04/14 09:47:24;;;;;;;11.67;11.27;;;19.50;52.00;;;;;;5072513;28;20498;-55
2023/04/14 09:49:59;;;;;;;11.70;11.20;;;19.50;52.00;;;;;;5072749;28;20949;-52
2023/04/14 09:52:40;;;;;;;11.83;11.33;;;19.40;51.90;;;;;;5072699;28;20478;-52
2023/04/14 09:55:10;;;;;;;10.83;10.63;;;19.40;51.80;;;;;;5072576;28;20451;-53
2023/04/14 09:57:37;;;;;;;11.67;11.27;;;19.40;51.80;;;;;;5072218;28;20888;-57
2023/04/14 10:00:21;;;;;;;11.40;11.00;;;19.40;51.80;;;;;;5072497;28;20451;-51
2023/04/14 10:02:49;;;;;;;10.93;10.60;;;19.30;51.70;;;;;;5072442;28;20514;-51
2023/04/14 10:05:18;;;;;;;11.23;10.90;;;19.30;51.70;;;;;;5072472;28;20528;-52
2023/04/14 10:07:46;;;;;;;11.53;11.20;;;19.30;51.70;;;;;;5072113;28;20503;-55
2023/04/14 10:10:13;;;;;;;10.80;10.50;;;19.30;51.70;;;;;;5072294;28;20443;-52
2023/04/14 10:12:43;;;;;;;11.93;11.63;;;19.30;51.70;;;;;;5072303;28;20481;-50
2023/04/14 10:15:13;;;;;;;11.90;11.50;;;19.20;51.60;;;;;;5072215;28;20536;-53
2023/04/14 10:17:41;;;;;;;11.60;11.10;;;19.30;51.60;;;;;;5072030;28;20512;-54
2023/04/14 10:20:09;;;;;;;11.20;10.90;;;19.30;51.60;;;;;;5072079;28;20850;-52
2023/04/14 10:22:36;;;;;;;11.60;11.30;;;19.20;51.60;;;;;;5072019;28;20443;-55
2023/04/14 10:25:04;;;;;;;11.07;10.67;;;19.20;51.50;;;;;;5072196;28;20786;-53
2023/04/14 10:27:32;;;;;;;11.40;11.10;;;19.20;51.50;;;;;;5071615;28;20463;-55
2023/04/14 10:30:00;;;;;;;11.80;11.40;;;19.20;51.50;;;;;;5072047;28;20552;-53
2023/04/14 10:32:32;;;;;;;10.97;10.57;;;19.20;51.50;;;;;;5072041;28;20447;-53
2023/04/14 10:35:04;;;;;;;12.20;11.63;;;19.20;51.50;;;;;;5071373;28;20516;-55
2023/04/14 10:37:31;;;;;;;11.53;11.03;;;19.20;51.50;;;;;;5071464;28;20482;-55
2023/04/14 10:40:00;;;;;;;11.37;11.07;;;19.20;51.50;;;;;;5071789;28;20483;-56
2023/04/14 10:42:27;;;;;;;11.80;11.50;;;19.20;51.50;;;;;;5071879;28;20469;-56
2023/04/14 10:45:06;;;;;;;12.07;11.67;;;19.20;51.40;;;;;;5071854;28;20451;-54
2023/04/14 10:47:35;;;;;;;10.90;10.60;;;19.20;51.40;;;;;;5071658;28;20502;-58
2023/04/14 10:50:12;;;;;;;11.20;10.90;;;19.20;51.40;;;;;;5071777;28;20444;-57
2023/04/14 10:52:48;;;;;;;11.10;10.80;;;19.20;51.40;;;;;;5072542;28;20450;-53
2023/04/14 10:55:15;;;;;;;11.27;10.87;;;19.20;51.40;;;;;;5071825;28;20494;-51
2023/04/14 10:57:43;;;;;;;11.33;10.93;;;19.20;51.40;;;;;;5071324;28;20478;-52
2023/04/14 11:00:26;;;;;;;11.80;11.40;;;19.20;51.30;;;;;;5078899;28;20518;-53
2023/04/14 11:02:57;;;;;;;10.80;10.60;;;19.20;51.30;;;;;;5079629;28;20455;-51
2023/04/14 11:05:24;;;;;;;11.40;11.10;;;19.20;51.30;;;;;;5071628;28;20479;-52
2023/04/14 11:07:56;;;;;;;11.33;11.03;;;19.20;51.30;;;;;;5071215;28;20896;-51
2023/04/14 11:10:33;;;;;;;11.90;11.40;;;19.20;51.30;;;;;;5071546;28;20489;-51
2023/04/14 11:13:06;;;;;;;10.70;10.40;;;19.20;51.30;;;;;;5071437;28;20531;-51
2023/04/14 11:15:50;;;;;;;11.20;10.90;;;19.20;51.30;;;;;;5071392;28;20470;-54
2023/04/14 11:18:31;;;;;;;11.10;10.80;;;19.20;51.30;;;;;;5071062;28;20466;-51
2023/04/14 11:21:03;;;;;;;10.90;10.60;;;19.20;51.30;;;;;;5071426;28;20443;-51
2023/04/14 11:23:30;;;;;;;11.30;11.00;;;19.20;51.30;;;;;;5071523;28;20454;-51
2023/04/14 11:25:57;;;;;;;10.87;10.57;;;19.20;51.30;;;;;;5071329;28;20449;-54
2023/04/14 11:28:28;;;;;;;11.03;10.73;;;19.20;51.30;;;;;;5071028;28;20866;-51
2023/04/14 11:30:58;;;;;;;11.33;10.93;;;19.20;51.30;;;;;;5071375;28;20854;-53
2023/04/14 11:33:29;;;;;;;11.13;10.83;;;19.20;51.30;;;;;;5071333;28;20459;-52
2023/04/14 11:35:57;;;;;;;11.17;10.87;;;19.20;51.30;;;;;;5071221;28;20454;-52
2023/04/14 11:38:24;;;;;;;10.80;10.50;;;19.20;51.20;;;;;;5071416;28;20561;-55
2023/04/14 11:40:52;;;;;;;11.10;10.70;;;19.20;51.20;;;;;;5071104;28;20471;-56
2023/04/14 11:43:19;;;;;;;11.17;10.77;;;19.20;51.20;;;;;;5071034;28;20490;-56
2023/04/14 11:45:46;;;;;;;11.60;11.00;;;19.20;51.20;;;;;;5071603;28;20942;-55
2023/04/14 11:48:16;;;;;;;11.40;11.10;;;19.20;51.20;;;;;;5074768;28;20951;-55
2023/04/14 11:50:45;;;;;;;11.90;11.50;;;19.20;51.20;;;;;;5075082;28;20478;-54
2023/04/14 11:53:13;;;;;;;11.37;11.07;;;19.20;51.10;;;;;;5074936;28;20461;-56
2023/04/14 11:55:43;;;;;;;11.30;11.00;;;19.20;51.10;;;;;;5075002;28;20535;-54
2023/04/14 11:58:10;;;;;;;11.80;11.40;;;19.30;51.70;;;;;;5074521;28;20463;-56
2023/04/14 12:00:37;;;;;;;11.30;10.90;;;19.30;51.10;;;;;;5074700;28;20844;-53
2023/04/14 12:03:04;;;;;;;11.97;11.47;;;19.30;51.10;;;;;;5074625;28;20478;-56
2023/04/14 12:05:32;;;;;;;11.73;11.33;;;19.20;51.00;;;;;;5074712;28;20495;-53
2023/04/14 12:08:02;;;;;;;11.77;11.43;;;19.20;51.00;;;;;;5074505;28;20484;-56
2023/04/14 12:10:29;;;;;;;12.13;11.67;;;19.30;51.10;;;;;;5074504;28;20447;-57
2023/04/14 12:13:01;;;;;;;11.67;11.37;;;19.30;51.00;;;;;;5074654;28;20530;-57
2023/04/14 12:15:28;;;;;;;11.50;11.10;;;19.30;51.00;;;;;;5074550;28;20438;-53
2023/04/14 12:17:55;;;;;;;10.87;10.60;;;19.30;51.00;;;;;;5074164;28;20491;-54
2023/04/14 12:20:23;;;;;;;10.80;10.50;;;19.30;51.00;;;;;;5074342;28;20483;-56
2023/04/14 12:22:50;;;;;;;11.00;10.70;;;19.30;51.00;;;;;;5074392;28;20958;-58
2023/04/14 12:25:19;;;;;;;11.23;10.93;;;19.30;51.00;;;;;;5074361;28;20926;-55
2023/04/14 12:27:52;;;;;;;11.00;10.70;;;19.30;50.90;;;;;;5073979;28;20538;-53
2023/04/14 12:30:21;;;;;;;11.50;11.10;;;19.30;50.90;;;;;;5074331;28;20530;-56
2023/04/14 12:32:48;;;;;;;12.10;11.70;;;19.40;51.00;;;;;;5074198;28;20788;-57
2023/04/14 12:35:15;;;;;;;11.50;11.20;;;19.40;51.00;;;;;;5074168;28;20895;-54
2023/04/14 12:37:48;;;;;;;11.07;10.67;;;19.40;51.00;;;;;;5073793;28;20507;-56